Alberhill, CA

9:56 AM PDT on September 23, 2014 (GMT -0700)
The Jonesranch | Change Station
CLOSE
Current Station
Personal Weather Station
Location: Rancho Capistrano, Ca
Elevation: 3100 ft
Nearby Weather Stations

Elev 3100 ft 33.61 °N, 117.36 °W | Updated 0 second ago

Clear
Clear
83.0 °F
Feels Like 80 °F
N
0.0
Wind Variable Wind from South
Gusts 3.0 mph

Today
High -- | Low -- °F
--% Chance of Precip.
Yesterday
High -- | Low -- °F
Precip. -- in
6:38 AM 6:44 PM
Waning Crescent, 0% visible
Pressure 30.01 in
Visibility 10.0 miles
Clouds Clear
Heat Index 80 °F
Dew Point 34 °F
Humidity 17%
Rainfall 0.00 in
Snow Depth 0 in , 0 in , 0 in
UV 4 out of 12
Pollen 5.70 out of 12
Ozone Good
PM2.5 Moderate
Flu Activity Not available.
METAR KF70 231635Z AUTO 00000KT 10SM CLR 25/11 A3001 RMK AO1

More Conditions Fewer Conditions

Pressure 30.01 in
Visibility 10.0 miles
Clouds Clear
Heat Index 80 °F
Dew Point 34 °F
Humidity 17%
Rainfall 0.00 in
Snow Depth 0 in , 0 in , 0 in
UV 4 out of 12
Pollen 5.70 out of 12
Ozone Good
PM2.5 Moderate
Flu Activity Not available.
METAR KF70 231635Z AUTO 00000KT 10SM CLR 25/11 A3001 RMK AO1

More Conditions Fewer Conditions

10-Day Weather Forecast

Almanac

Astronomy

Sep. 23, 2014 Rise Set
Actual Time 6:38 AM PDT 6:44 PM PDT
Civil Twilight 6:13 AM PDT 7:09 PM PDT
Nautical Twilight 5:44 AM PDT 7:38 PM PDT
Astronomical Twilight 5:15 AM PDT 8:07 PM PDT
Moon 6:07 AM PDT 6:26 PM PDT
Length of Visible Light 12h 55m
Length of Day
12h 06m
Tomorrow will be 2m 5s shorter.
Waning Crescent, 0% of the Moon is Illuminated
Today
Waning Crescent
Sep 24
New
Oct 1
First Quarter
Oct 8
Full
Oct 15
Last Quarter

Today's Extremes

State Highs State Lows

Community

WunderPhotos

Upload Photos

1,755,750 photos uploaded!

WunderBlogs® & News

Nearby

Air Quality

  Air Quality AQ Index Pollutant
Yesterday Good
PM10
Yesterday Good
OZONE
Current Moderate
PM2.5
Current Good
OZONE
Tuesday Good
PM10
Tuesday Moderate
OZONE
Tuesday Good
CO
Tuesday Good
NO2

Snow Depth

Station Depth Elevation
Rubicon #2 0 in 7500 ft
Independence Camp 0 in 7000 ft
Heavenly Valley 0 in 8850 ft
Ebbetts Pass 0 in 8700 ft
Spratt Creek 1 in 6200 ft

Earthquake Activity

City Distance Mag. Time & Date
Big Bear Lake, California 50 miles 2.5 7:26 AM PDT
2014-09-22
Borrego Springs, California 62 miles 2.6 7:34 AM PDT
2014-09-21
Minimum magnitude displayed is 2.5.

Coastal Water Temperatures

Place Temperature
Santa Monica Pier 70.0 °F
Los Angeles, CA 66.9 °F
La Jolla, CA 69.1 °F

Nearby Weather Stations